createdAt,value
2023-02-02T00:00:36.467Z,1.69
2023-02-02T00:01:41.037Z,1.67
2023-02-02T00:02:43.036Z,1.69
2023-02-02T00:03:49.103Z,1.70
2023-02-02T00:04:51.168Z,1.70
2023-02-02T00:05:57.835Z,1.68
2023-02-02T00:07:00.306Z,1.64
2023-02-02T00:08:04.847Z,1.63
2023-02-02T00:09:06.841Z,1.59
2023-02-02T00:10:12.800Z,1.56
2023-02-02T00:11:18.214Z,1.58
2023-02-02T00:12:20.142Z,1.56
2023-02-02T00:13:24.656Z,1.52
2023-02-02T00:14:26.879Z,1.53
2023-02-02T00:15:34.009Z,1.50
2023-02-02T00:16:41.753Z,1.53
2023-02-02T00:17:46.271Z,1.52
2023-02-02T00:18:49.026Z,1.52
2023-02-02T00:19:53.582Z,1.48
2023-02-02T00:20:55.568Z,1.47
2023-02-02T00:22:00.616Z,1.46
2023-02-02T00:23:02.994Z,1.46
2023-02-02T00:24:08.101Z,1.45
2023-02-02T00:25:10.640Z,1.43
2023-02-02T00:26:15.157Z,1.42
2023-02-02T00:27:17.214Z,1.42
2023-02-02T00:28:21.755Z,1.42
2023-02-02T00:29:25.859Z,1.40
2023-02-02T00:30:33.092Z,1.44
2023-02-02T00:31:35.348Z,1.41
2023-02-02T00:32:40.859Z,1.34
2023-02-02T00:33:45.477Z,1.36
2023-02-02T00:34:50.055Z,1.36
2023-02-02T00:35:52.353Z,1.36
2023-02-02T00:36:56.927Z,1.31
2023-02-02T00:37:58.906Z,1.34
2023-02-02T00:39:03.485Z,1.32
2023-02-02T00:40:07.442Z,1.32
2023-02-02T00:41:12.066Z,1.31
2023-02-02T00:42:14.009Z,1.29
2023-02-02T00:43:18.655Z,1.28
2023-02-02T00:44:35.677Z,1.28
2023-02-02T00:45:40.329Z,1.24
2023-02-02T00:46:43.152Z,1.28
2023-02-02T00:47:49.317Z,1.26
2023-02-02T00:48:52.138Z,1.29
2023-02-02T00:49:56.713Z,1.28
2023-02-02T00:50:58.738Z,1.26
2023-02-02T00:52:03.267Z,1.29
2023-02-02T00:53:05.593Z,1.29
2023-02-02T00:54:10.173Z,1.30
2023-02-02T00:55:13.325Z,1.28
2023-02-02T00:56:17.862Z,1.25
2023-02-02T00:57:19.844Z,1.26
2023-02-02T00:58:24.375Z,1.24
2023-02-02T00:59:26.366Z,1.24
2023-02-02T01:00:30.948Z,1.20
2023-02-02T01:01:35.542Z,1.25
2023-02-02T01:02:40.135Z,1.25
2023-02-02T01:03:42.118Z,1.21
2023-02-02T01:04:46.660Z,1.22
2023-02-02T01:05:50.284Z,1.22
2023-02-02T01:06:54.818Z,1.27
2023-02-02T01:07:56.795Z,1.26
2023-02-02T01:09:01.415Z,1.26
2023-02-02T01:10:03.859Z,1.23
2023-02-02T01:11:08.634Z,1.25
2023-02-02T01:12:10.644Z,1.24
2023-02-02T01:13:15.172Z,1.23
2023-02-02T01:14:17.184Z,1.24
2023-02-02T01:15:22.213Z,1.24
2023-02-02T01:16:24.991Z,1.24
2023-02-02T01:17:32.263Z,1.22
2023-02-02T01:18:34.318Z,1.22
2023-02-02T01:19:38.925Z,1.22
2023-02-02T01:20:40.889Z,1.21
2023-02-02T01:21:45.741Z,1.26
2023-02-02T01:22:47.978Z,1.21
2023-02-02T01:23:52.745Z,1.19
2023-02-02T01:24:54.726Z,1.16
2023-02-02T01:26:00.432Z,1.15
2023-02-02T01:27:02.392Z,1.14
2023-02-02T01:28:07.285Z,1.16
2023-02-02T01:29:09.213Z,1.17
2023-02-02T01:30:15.242Z,1.11
2023-02-02T01:31:19.668Z,1.13
2023-02-02T01:32:24.235Z,1.14
2023-02-02T01:33:28.803Z,1.15
2023-02-02T01:34:33.378Z,1.16
2023-02-02T01:35:35.353Z,1.09
2023-02-02T01:36:39.931Z,1.11
2023-02-02T01:37:41.989Z,1.13
2023-02-02T01:38:46.761Z,1.07
2023-02-02T01:39:48.834Z,1.01
2023-02-02T01:40:54.932Z,0.99
2023-02-02T01:41:59.512Z,0.99
2023-02-02T01:43:01.440Z,0.93
2023-02-02T01:44:08.159Z,0.98
2023-02-02T01:45:29.206Z,0.93
2023-02-02T01:46:35.447Z,0.84
2023-02-02T01:47:40.214Z,0.89
2023-02-02T01:48:55.490Z,0.88
2023-02-02T01:49:57.825Z,0.81
2023-02-02T01:51:06.319Z,0.84
2023-02-02T01:52:10.292Z,0.88
2023-02-02T01:53:14.894Z,0.83
2023-02-02T01:54:22.100Z,0.78
2023-02-02T01:55:29.307Z,0.78
2023-02-02T01:56:36.521Z,0.81
2023-02-02T01:57:44.881Z,0.81
2023-02-02T01:58:47.357Z,0.82
2023-02-02T01:59:54.721Z,0.82
2023-02-02T02:00:56.895Z,0.86
2023-02-02T02:02:02.301Z,0.85
2023-02-02T02:03:08.867Z,0.90
2023-02-02T02:04:16.393Z,0.86
2023-02-02T02:05:24.781Z,0.86
2023-02-02T02:06:30.972Z,0.83
2023-02-02T02:07:33.224Z,0.81
2023-02-02T02:08:42.744Z,0.78
2023-02-02T02:09:44.720Z,0.79
2023-02-02T02:10:49.500Z,0.84
2023-02-02T02:11:53.666Z,0.85
2023-02-02T02:12:58.361Z,0.83
2023-02-02T02:14:18.154Z,0.80
2023-02-02T02:15:36.513Z,0.78
2023-02-02T02:16:49.599Z,0.78
2023-02-02T02:18:07.171Z,0.78
2023-02-02T02:19:25.170Z,0.79
2023-02-02T02:21:07.801Z,0.83
2023-02-02T02:22:28.903Z,0.87
2023-02-02T02:24:24.122Z,0.87
2023-02-02T02:26:11.228Z,0.92
2023-02-02T02:27:51.357Z,0.90
2023-02-02T02:29:17.813Z,0.91
2023-02-02T02:30:38.729Z,0.91
2023-02-02T02:32:14.329Z,0.94
2023-02-02T02:33:23.791Z,0.97
2023-02-02T02:34:36.980Z,0.99
2023-02-02T02:35:46.378Z,1.05
2023-02-02T02:36:54.404Z,1.05
2023-02-02T02:38:05.212Z,1.09
2023-02-02T02:39:16.155Z,1.09
2023-02-02T02:40:25.575Z,1.09
2023-02-02T02:41:36.564Z,1.08
2023-02-02T02:42:42.187Z,1.12
2023-02-02T02:43:51.027Z,1.10
2023-02-02T02:44:55.310Z,1.12
2023-02-02T02:46:00.644Z,1.12
2023-02-02T02:47:03.064Z,1.13
2023-02-02T02:48:13.003Z,1.15
2023-02-02T02:49:15.052Z,1.17
2023-02-02T02:50:19.970Z,1.16
2023-02-02T02:51:41.928Z,1.20
2023-02-02T02:52:46.745Z,1.18
2023-02-02T02:53:48.996Z,1.20
2023-02-02T02:54:56.780Z,1.23
2023-02-02T02:56:09.853Z,1.24
2023-02-02T02:57:42.149Z,1.26
2023-02-02T02:58:47.961Z,1.30
2023-02-02T02:59:59.971Z,1.30
2023-02-02T03:01:10.272Z,1.30
2023-02-02T03:02:37.438Z,1.33
2023-02-02T03:04:00.117Z,1.34
2023-02-02T03:05:13.970Z,1.34
2023-02-02T03:06:25.891Z,1.37
2023-02-02T03:07:32.938Z,1.41
2023-02-02T03:08:42.800Z,1.36
2023-02-02T03:09:47.544Z,1.40
2023-02-02T03:10:52.257Z,1.34
2023-02-02T03:11:56.416Z,1.33
2023-02-02T03:13:01.293Z,1.32
2023-02-02T03:14:04.593Z,1.34
2023-02-02T03:15:10.249Z,1.33
2023-02-02T03:16:12.423Z,1.32
2023-02-02T03:17:16.949Z,1.31
2023-02-02T03:18:22.261Z,1.27
2023-02-02T03:19:29.467Z,1.25
2023-02-02T03:20:31.463Z,1.22
2023-02-02T03:21:37.071Z,1.16
2023-02-02T03:22:39.209Z,1.20
2023-02-02T03:23:43.800Z,1.20
2023-02-02T03:24:45.763Z,1.19
2023-02-02T03:25:50.999Z,1.21
2023-02-02T03:26:53.457Z,1.23
2023-02-02T03:27:58.029Z,1.22
2023-02-02T03:29:01.144Z,1.26
2023-02-02T03:30:05.949Z,1.32
2023-02-02T03:31:08.402Z,1.29
2023-02-02T03:32:13.115Z,1.36
2023-02-02T03:33:16.469Z,1.37
2023-02-02T03:34:21.002Z,1.34
2023-02-02T03:35:26.470Z,1.35
2023-02-02T03:36:31.150Z,1.36
2023-02-02T03:37:33.095Z,1.37
2023-02-02T03:38:37.707Z,1.38
2023-02-02T03:39:39.671Z,1.39
2023-02-02T03:40:44.577Z,1.39
2023-02-02T03:41:46.492Z,1.40
2023-02-02T03:42:51.097Z,1.39
2023-02-02T03:43:53.083Z,1.39
2023-02-02T03:44:57.596Z,1.42
2023-02-02T03:46:04.421Z,1.44
2023-02-02T03:47:09.070Z,1.40
2023-02-02T03:48:10.999Z,1.45
2023-02-02T03:49:15.518Z,1.45
2023-02-02T03:50:18.074Z,1.50
2023-02-02T03:51:25.197Z,1.47
2023-02-02T03:52:27.522Z,1.46
2023-02-02T03:53:32.024Z,1.44
2023-02-02T03:54:34.089Z,1.44
2023-02-02T03:55:40.595Z,1.46
2023-02-02T03:56:42.866Z,1.48
2023-02-02T03:57:47.455Z,1.49
2023-02-02T03:58:49.456Z,1.55
2023-02-02T03:59:54.097Z,1.58
2023-02-02T04:01:02.517Z,1.59
2023-02-02T04:02:07.045Z,1.59
2023-02-02T04:03:09.060Z,1.56
2023-02-02T04:04:13.655Z,1.59
2023-02-02T04:05:15.816Z,1.64
2023-02-02T04:06:20.735Z,1.68
2023-02-02T04:07:25.351Z,1.68
2023-02-02T04:08:30.268Z,1.71
2023-02-02T04:09:32.914Z,1.72
2023-02-02T04:10:39.739Z,1.76
2023-02-02T04:11:41.689Z,1.71
2023-02-02T04:12:46.724Z,1.72
2023-02-02T04:13:48.657Z,1.81
2023-02-02T04:14:53.187Z,1.85
2023-02-02T04:15:59.159Z,1.84
2023-02-02T04:17:03.698Z,1.82
2023-02-02T04:18:05.775Z,1.85
2023-02-02T04:19:12.917Z,1.85
2023-02-02T04:20:15.033Z,1.90
2023-02-02T04:21:19.728Z,1.89
2023-02-02T04:22:24.338Z,1.90
2023-02-02T04:23:29.436Z,1.94
2023-02-02T04:24:31.421Z,1.98
2023-02-02T04:25:35.942Z,2.00
2023-02-02T04:26:37.998Z,2.05
2023-02-02T04:27:42.558Z,2.08
2023-02-02T04:28:44.516Z,2.08
2023-02-02T04:29:49.087Z,2.11
2023-02-02T04:30:51.728Z,2.10
2023-02-02T04:31:56.740Z,2.12
2023-02-02T04:32:59.053Z,2.11
2023-02-02T04:34:04.125Z,2.14
2023-02-02T04:35:07.267Z,2.12
2023-02-02T04:36:13.202Z,2.13
2023-02-02T04:37:15.225Z,2.17
2023-02-02T04:38:22.928Z,2.17
2023-02-02T04:39:25.118Z,2.18
2023-02-02T04:40:29.832Z,2.17
2023-02-02T04:41:31.789Z,2.18
2023-02-02T04:42:36.361Z,2.18
2023-02-02T04:43:39.065Z,2.18
2023-02-02T04:44:44.131Z,2.17
2023-02-02T04:45:46.310Z,2.20
2023-02-02T04:46:50.915Z,2.17
2023-02-02T04:47:52.908Z,2.19
2023-02-02T04:48:57.503Z,2.20
2023-02-02T04:49:59.428Z,2.20
2023-02-02T04:51:05.389Z,2.22
2023-02-02T04:52:07.443Z,2.23
2023-02-02T04:53:11.997Z,2.25
2023-02-02T04:54:17.007Z,2.27
2023-02-02T04:55:21.600Z,2.28
2023-02-02T04:56:23.560Z,2.27
2023-02-02T04:57:28.139Z,2.28
2023-02-02T04:58:30.233Z,2.31
2023-02-02T04:59:34.866Z,2.32
2023-02-02T05:00:37.228Z,2.32
2023-02-02T05:01:42.303Z,2.34
2023-02-02T05:02:44.369Z,2.36
2023-02-02T05:03:49.281Z,2.33
2023-02-02T05:04:51.371Z,2.33
2023-02-02T05:06:05.201Z,2.34
2023-02-02T05:07:07.297Z,2.35
2023-02-02T05:08:12.170Z,2.36
2023-02-02T05:09:16.773Z,2.35
2023-02-02T05:10:21.655Z,2.36
2023-02-02T05:11:24.460Z,2.37
2023-02-02T05:12:29.057Z,2.35
2023-02-02T05:13:31.057Z,2.34
2023-02-02T05:14:35.598Z,2.36
2023-02-02T05:15:37.586Z,2.33
2023-02-02T05:16:42.167Z,2.34
2023-02-02T05:17:44.285Z,2.34
2023-02-02T05:18:52.437Z,2.35
2023-02-02T05:19:54.427Z,2.36
2023-02-02T05:20:59.058Z,2.38
2023-02-02T05:22:01.113Z,2.39
2023-02-02T05:23:05.871Z,2.43
2023-02-02T05:24:08.208Z,2.41
2023-02-02T05:25:15.536Z,2.40
2023-02-02T05:26:19.895Z,2.39
2023-02-02T05:27:24.704Z,2.37
2023-02-02T05:28:26.743Z,2.37
2023-02-02T05:29:31.387Z,2.36
2023-02-02T05:30:33.764Z,2.37
2023-02-02T05:31:38.559Z,2.36
2023-02-02T05:32:41.236Z,2.36
2023-02-02T05:33:45.905Z,2.38
2023-02-02T05:34:48.069Z,2.38
2023-02-02T05:35:52.927Z,2.42
2023-02-02T05:36:55.119Z,2.47
2023-02-02T05:37:59.755Z,2.47
2023-02-02T05:39:01.798Z,2.49
2023-02-02T05:40:06.954Z,2.49
2023-02-02T05:41:11.610Z,2.53
2023-02-02T05:42:16.176Z,2.54
2023-02-02T05:43:18.796Z,2.55
2023-02-02T05:44:24.625Z,2.52
2023-02-02T05:45:26.874Z,2.54
2023-02-02T05:46:32.213Z,2.54
2023-02-02T05:47:35.829Z,2.53
2023-02-02T05:48:40.478Z,2.52
2023-02-02T05:49:42.397Z,2.54
2023-02-02T05:50:51.679Z,2.53
2023-02-02T05:51:59.679Z,2.52
2023-02-02T05:53:01.997Z,2.52
2023-02-02T05:54:06.857Z,2.52
2023-02-02T05:55:10.770Z,2.54
2023-02-02T05:56:18.436Z,2.57
2023-02-02T05:57:20.808Z,2.57
2023-02-02T05:58:25.967Z,2.56
2023-02-02T05:59:29.327Z,2.56
2023-02-02T06:00:33.928Z,2.58
2023-02-02T06:01:36.022Z,2.60
2023-02-02T06:02:40.580Z,2.58
2023-02-02T06:03:42.763Z,2.59
2023-02-02T06:04:47.428Z,2.57
2023-02-02T06:05:49.533Z,2.57
2023-02-02T06:06:54.085Z,2.58
2023-02-02T06:07:56.040Z,2.56
2023-02-02T06:09:00.599Z,2.59
2023-02-02T06:10:03.062Z,2.58
2023-02-02T06:11:12.314Z,2.57
2023-02-02T06:12:18.913Z,2.55
2023-02-02T06:13:23.751Z,2.56
2023-02-02T06:14:25.929Z,2.57
2023-02-02T06:15:31.654Z,2.59
2023-02-02T06:16:33.869Z,2.58
2023-02-02T06:17:38.524Z,2.58
2023-02-02T06:18:40.535Z,2.55
2023-02-02T06:19:45.208Z,2.53
2023-02-02T06:20:47.805Z,2.54
2023-02-02T06:21:52.434Z,2.53
2023-02-02T06:22:54.441Z,2.49
2023-02-02T06:23:58.972Z,2.46
2023-02-02T06:25:01.240Z,2.46
2023-02-02T06:26:08.401Z,2.54
2023-02-02T06:27:10.394Z,2.53
2023-02-02T06:28:17.564Z,2.51
2023-02-02T06:29:19.567Z,2.49
2023-02-02T06:30:24.474Z,2.50
2023-02-02T06:31:26.613Z,2.51
2023-02-02T06:32:32.347Z,2.50
2023-02-02T06:33:34.583Z,2.47
2023-02-02T06:34:39.153Z,2.47
2023-02-02T06:35:41.174Z,2.43
2023-02-02T06:36:45.707Z,2.43
2023-02-02T06:37:47.749Z,2.43
2023-02-02T06:38:53.195Z,2.45
2023-02-02T06:39:55.154Z,2.46
2023-02-02T06:41:02.420Z,2.46
2023-02-02T06:42:19.220Z,2.43
2023-02-02T06:43:27.837Z,2.45
2023-02-02T06:44:29.922Z,2.44
2023-02-02T06:45:39.290Z,2.46
2023-02-02T06:46:41.322Z,2.45
2023-02-02T06:47:45.962Z,2.44
2023-02-02T06:48:48.021Z,2.47
2023-02-02T06:49:52.664Z,2.40
2023-02-02T06:50:54.681Z,2.39
2023-02-02T06:51:59.218Z,2.39
2023-02-02T06:53:01.160Z,2.36
2023-02-02T06:54:06.047Z,2.38
2023-02-02T06:55:08.593Z,2.35
2023-02-02T06:56:15.803Z,2.38
2023-02-02T06:57:17.736Z,2.36
2023-02-02T06:58:22.283Z,2.36
2023-02-02T06:59:29.440Z,2.34
2023-02-02T07:00:31.796Z,2.33
2023-02-02T07:01:36.339Z,2.31
2023-02-02T07:02:38.542Z,2.29
2023-02-02T07:03:43.811Z,2.30
2023-02-02T07:04:45.730Z,2.27
2023-02-02T07:05:50.784Z,2.32
2023-02-02T07:06:55.294Z,2.30
2023-02-02T07:07:57.233Z,2.27
2023-02-02T07:09:03.429Z,2.28
2023-02-02T07:10:06.178Z,2.22
2023-02-02T07:11:15.513Z,2.25
2023-02-02T07:12:20.824Z,2.22
2023-02-02T07:13:23.496Z,2.23
2023-02-02T07:14:30.871Z,2.23
2023-02-02T07:15:33.107Z,2.19
2023-02-02T07:16:37.667Z,2.16
2023-02-02T07:17:39.653Z,2.14
2023-02-02T07:18:47.741Z,2.15
2023-02-02T07:19:49.715Z,2.15
2023-02-02T07:20:54.246Z,2.16
2023-02-02T07:21:56.247Z,2.22
2023-02-02T07:23:02.685Z,2.18
2023-02-02T07:24:06.569Z,2.21
2023-02-02T07:25:11.677Z,2.21
2023-02-02T07:26:14.600Z,2.23
2023-02-02T07:27:19.214Z,2.26
2023-02-02T07:28:21.176Z,2.21
2023-02-02T07:29:25.719Z,2.16
2023-02-02T07:30:30.326Z,2.16
2023-02-02T07:31:36.812Z,2.13
2023-02-02T07:32:39.007Z,2.12
2023-02-02T07:33:44.271Z,2.07
2023-02-02T07:34:49.008Z,2.04
2023-02-02T07:35:53.631Z,2.03
2023-02-02T07:36:58.203Z,1.93
2023-02-02T07:38:00.263Z,1.78
2023-02-02T07:39:05.453Z,1.71
2023-02-02T07:40:09.480Z,1.69
2023-02-02T07:41:14.280Z,1.76
2023-02-02T07:42:18.924Z,1.78
2023-02-02T07:43:20.888Z,1.79
2023-02-02T07:44:25.453Z,1.83
2023-02-02T07:45:33.414Z,1.86
2023-02-02T07:46:38.557Z,1.94
2023-02-02T07:47:40.884Z,1.95
2023-02-02T07:48:45.557Z,2.00
2023-02-02T07:49:50.165Z,2.04
2023-02-02T07:50:52.446Z,2.10
2023-02-02T07:51:57.121Z,2.10
2023-02-02T07:52:59.501Z,2.10
2023-02-02T07:54:04.462Z,2.14
2023-02-02T07:55:25.981Z,2.13
2023-02-02T07:56:30.726Z,2.09
2023-02-02T07:57:35.304Z,2.14
2023-02-02T07:58:37.574Z,2.15
2023-02-02T07:59:42.411Z,2.15
2023-02-02T08:00:46.971Z,2.11
2023-02-02T08:01:51.767Z,2.11
2023-02-02T08:02:53.894Z,2.05
2023-02-02T08:04:00.563Z,1.97
2023-02-02T08:05:02.549Z,1.88
2023-02-02T08:06:14.341Z,1.97
2023-02-02T08:07:21.503Z,1.90
2023-02-02T08:08:26.120Z,1.93
2023-02-02T08:09:28.101Z,1.96
2023-02-02T08:10:32.617Z,1.91
2023-02-02T08:11:38.905Z,1.88
2023-02-02T08:12:43.477Z,1.83
2023-02-02T08:13:51.479Z,1.81
2023-02-02T08:14:56.015Z,1.80
2023-02-02T08:16:03.218Z,1.74
2023-02-02T08:17:07.858Z,1.78
2023-02-02T08:18:09.850Z,1.82
2023-02-02T08:19:14.776Z,1.83
2023-02-02T08:20:16.977Z,1.82
2023-02-02T08:21:21.776Z,1.85
2023-02-02T08:22:26.460Z,1.88
2023-02-02T08:23:31.569Z,1.88
2023-02-02T08:24:33.630Z,1.90
2023-02-02T08:25:38.228Z,1.89
2023-02-02T08:26:43.047Z,1.93
2023-02-02T08:27:47.628Z,1.97
2023-02-02T08:28:54.231Z,1.99
2023-02-02T08:29:58.820Z,2.07
2023-02-02T08:31:11.015Z,2.04
2023-02-02T08:32:15.725Z,2.07
2023-02-02T08:33:17.676Z,2.12
2023-02-02T08:34:22.231Z,2.17
2023-02-02T08:35:27.121Z,2.15
2023-02-02T08:36:35.534Z,2.17
2023-02-02T08:37:37.565Z,2.15
2023-02-02T08:38:42.210Z,2.14
2023-02-02T08:39:44.437Z,2.16
2023-02-02T08:40:49.021Z,2.22
2023-02-02T08:41:53.587Z,2.20
2023-02-02T08:42:58.406Z,2.13
2023-02-02T08:44:00.597Z,2.14
2023-02-02T08:46:04.214Z,2.12
2023-02-02T08:46:32.472Z,2.21
2023-02-02T08:47:34.432Z,2.18
2023-02-02T08:48:39.446Z,2.19
2023-02-02T08:49:45.300Z,2.18
2023-02-02T08:50:53.001Z,2.18
2023-02-02T08:51:57.540Z,2.14
2023-02-02T08:52:59.554Z,2.17
2023-02-02T08:54:04.876Z,2.15
2023-02-02T08:55:07.388Z,2.16
2023-02-02T08:56:14.477Z,2.16
2023-02-02T08:57:18.991Z,2.15
2023-02-02T08:58:20.949Z,2.14
2023-02-02T08:59:25.512Z,2.14
2023-02-02T09:00:27.562Z,2.15
2023-02-02T09:01:35.830Z,2.23
2023-02-02T09:02:40.376Z,2.18
2023-02-02T09:03:46.331Z,2.21
2023-02-02T09:04:50.897Z,2.21
2023-02-02T09:05:52.901Z,2.21
2023-02-02T09:06:57.470Z,2.23
2023-02-02T09:08:02.486Z,2.25
2023-02-02T09:09:08.725Z,2.26
2023-02-02T09:10:13.880Z,2.23
2023-02-02T09:11:21.897Z,2.23
2023-02-02T09:12:26.652Z,2.27
2023-02-02T09:13:28.643Z,2.31
2023-02-02T09:14:33.353Z,2.38
2023-02-02T09:15:38.824Z,2.40
2023-02-02T09:16:46.259Z,2.38
2023-02-02T09:17:48.211Z,2.35
2023-02-02T09:18:53.262Z,2.36
2023-02-02T09:19:57.941Z,2.38
2023-02-02T09:21:03.985Z,2.40
2023-02-02T09:22:08.538Z,2.40
2023-02-02T09:23:10.517Z,2.41
2023-02-02T09:24:16.586Z,2.44
2023-02-02T09:25:18.701Z,2.47
2023-02-02T09:26:25.609Z,2.50
2023-02-02T09:27:30.299Z,2.53
2023-02-02T09:28:32.292Z,2.58
2023-02-02T09:29:36.947Z,2.58
2023-02-02T09:30:41.595Z,2.60
2023-02-02T09:31:48.900Z,2.65
2023-02-02T09:32:51.210Z,2.65
2023-02-02T09:33:55.897Z,2.69
2023-02-02T09:34:57.923Z,2.68
2023-02-02T09:36:08.016Z,2.69
2023-02-02T09:37:10.079Z,2.72
2023-02-02T09:38:14.616Z,2.76
2023-02-02T09:39:20.582Z,2.77
2023-02-02T09:40:22.630Z,2.71
2023-02-02T09:41:56.292Z,2.72
2023-02-02T09:43:08.791Z,2.74
2023-02-02T09:44:18.885Z,2.75
2023-02-02T09:45:28.679Z,2.74
2023-02-02T09:46:43.273Z,2.76
2023-02-02T09:47:58.924Z,2.73
2023-02-02T09:49:06.438Z,2.80
2023-02-02T09:50:21.314Z,2.81
2023-02-02T09:51:31.564Z,2.78
2023-02-02T09:52:43.576Z,2.80
2023-02-02T09:53:56.005Z,2.80
2023-02-02T09:55:05.617Z,2.81
2023-02-02T09:56:20.781Z,2.82
2023-02-02T09:57:25.778Z,2.81
2023-02-02T09:58:34.055Z,2.83
2023-02-02T09:59:42.528Z,2.87
2023-02-02T10:00:53.905Z,2.89
2023-02-02T10:02:03.987Z,2.88
2023-02-02T10:03:16.944Z,2.91
2023-02-02T10:04:26.538Z,2.87
2023-02-02T10:05:37.331Z,2.90
2023-02-02T10:06:44.870Z,2.90
2023-02-02T10:07:51.765Z,2.89
2023-02-02T10:09:00.500Z,2.88
2023-02-02T10:10:13.676Z,2.94
2023-02-02T10:11:32.460Z,2.89
2023-02-02T10:12:47.401Z,2.95
2023-02-02T10:13:55.493Z,2.94
2023-02-02T10:15:06.608Z,2.90
2023-02-02T10:16:17.844Z,2.91
2023-02-02T10:17:38.573Z,2.93
2023-02-02T10:18:51.736Z,2.92
2023-02-02T10:20:01.726Z,2.94
2023-02-02T10:21:10.300Z,2.96
2023-02-02T10:22:18.748Z,2.91
2023-02-02T10:23:26.259Z,2.92
2023-02-02T10:24:32.967Z,2.92
2023-02-02T10:25:35.883Z,2.90
2023-02-02T10:26:45.081Z,2.93
2023-02-02T10:28:01.132Z,2.95
2023-02-02T10:29:17.108Z,2.97
2023-02-02T10:30:27.088Z,2.94
2023-02-02T10:31:44.314Z,2.96
2023-02-02T10:32:51.966Z,2.97
2023-02-02T10:34:08.178Z,2.95
2023-02-02T10:35:33.010Z,2.98
2023-02-02T10:36:50.311Z,2.99
2023-02-02T10:38:01.941Z,3.00
2023-02-02T10:39:12.543Z,2.98
2023-02-02T10:40:26.531Z,3.00
2023-02-02T10:41:36.762Z,2.96
2023-02-02T10:43:15.322Z,2.97
2023-02-02T10:44:32.112Z,3.00
2023-02-02T10:45:37.970Z,3.04
2023-02-02T10:46:43.573Z,3.08
2023-02-02T10:47:48.626Z,3.11
2023-02-02T10:48:53.004Z,3.05
2023-02-02T10:50:06.244Z,3.10
2023-02-02T10:51:20.618Z,3.12
2023-02-02T10:52:32.187Z,3.16
2023-02-02T10:53:36.530Z,3.18
2023-02-02T10:54:57.032Z,3.19
2023-02-02T10:56:08.772Z,3.18
2023-02-02T10:57:17.672Z,3.13
2023-02-02T10:58:28.347Z,3.09
2023-02-02T10:59:33.047Z,3.14
2023-02-02T11:00:43.971Z,3.09
2023-02-02T11:01:48.837Z,3.12
2023-02-02T11:02:54.964Z,3.16
2023-02-02T11:04:12.112Z,3.13
2023-02-02T11:05:35.985Z,3.17
2023-02-02T11:06:52.607Z,3.16
2023-02-02T11:07:55.648Z,3.19
2023-02-02T11:09:01.345Z,3.14
2023-02-02T11:10:03.445Z,3.21
2023-02-02T11:11:15.916Z,3.17
2023-02-02T11:12:26.678Z,3.20
2023-02-02T11:13:32.478Z,3.18
2023-02-02T11:14:45.675Z,3.21
2023-02-02T11:15:48.204Z,3.19
2023-02-02T11:17:04.245Z,3.14
2023-02-02T11:18:30.025Z,3.15
2023-02-02T11:19:37.767Z,3.10
2023-02-02T11:20:46.782Z,3.10
2023-02-02T11:21:54.266Z,3.10
2023-02-02T11:23:07.657Z,3.13
2023-02-02T11:24:24.944Z,3.06
2023-02-02T11:25:33.977Z,3.11
2023-02-02T11:26:48.980Z,3.08
2023-02-02T11:27:53.727Z,3.09
2023-02-02T11:29:00.817Z,3.09
2023-02-02T11:30:22.888Z,3.11
2023-02-02T11:31:34.135Z,3.10
2023-02-02T11:32:38.871Z,3.12
2023-02-02T11:33:43.561Z,3.15
2023-02-02T11:34:45.801Z,3.07
2023-02-02T11:35:59.854Z,3.05
2023-02-02T11:37:14.849Z,3.01
2023-02-02T11:38:17.711Z,2.97
2023-02-02T11:39:24.203Z,2.98
2023-02-02T11:40:36.968Z,3.02
2023-02-02T11:41:39.002Z,3.01
2023-02-02T11:42:48.938Z,3.02
2023-02-02T11:43:58.056Z,2.96
2023-02-02T11:45:04.676Z,2.97
2023-02-02T11:46:18.857Z,2.96
2023-02-02T11:47:29.678Z,2.96
2023-02-02T11:48:38.275Z,2.96
2023-02-02T11:49:46.526Z,2.99
2023-02-02T11:50:59.348Z,2.99
2023-02-02T11:52:04.592Z,2.98
2023-02-02T11:53:09.126Z,2.99
2023-02-02T11:54:18.430Z,2.98
2023-02-02T11:55:29.492Z,3.01
2023-02-02T11:56:34.654Z,2.95
2023-02-02T11:57:37.016Z,3.00
2023-02-02T11:58:49.171Z,2.99
2023-02-02T12:00:08.588Z,2.99
2023-02-02T12:01:24.299Z,2.95
2023-02-02T12:02:31.281Z,2.96
2023-02-02T12:03:38.023Z,2.92
2023-02-02T12:04:40.852Z,2.91
2023-02-02T12:05:49.899Z,2.90
2023-02-02T12:06:57.262Z,2.88
2023-02-02T12:08:00.176Z,2.89
2023-02-02T12:09:12.709Z,2.91
2023-02-02T12:10:22.616Z,2.89
2023-02-02T12:11:41.953Z,2.92
2023-02-02T12:12:54.641Z,2.92
2023-02-02T12:14:12.140Z,2.92
2023-02-02T12:15:27.762Z,2.90
2023-02-02T12:16:53.951Z,2.90
2023-02-02T12:18:05.271Z,2.88
2023-02-02T12:19:23.868Z,2.94
2023-02-02T12:20:36.686Z,2.87
2023-02-02T12:21:48.384Z,2.85
2023-02-02T12:23:25.932Z,2.89
2023-02-02T12:24:34.598Z,2.88
2023-02-02T12:26:05.736Z,2.89
2023-02-02T12:27:25.155Z,2.87
2023-02-02T12:28:43.402Z,2.85
2023-02-02T12:30:06.286Z,2.84
2023-02-02T12:31:19.574Z,2.79
2023-02-02T12:32:31.029Z,2.82
2023-02-02T12:33:38.957Z,2.81
2023-02-02T12:34:54.686Z,2.77
2023-02-02T12:36:18.216Z,2.80
2023-02-02T12:37:39.528Z,2.84
2023-02-02T12:39:10.701Z,2.87
2023-02-02T12:40:30.146Z,2.84
2023-02-02T12:41:45.228Z,2.86
2023-02-02T12:43:06.170Z,2.82
2023-02-02T12:44:19.514Z,2.77
2023-02-02T12:45:35.042Z,2.82
2023-02-02T12:46:59.838Z,2.84
2023-02-02T12:48:18.732Z,2.85
2023-02-02T12:49:42.447Z,2.80
2023-02-02T12:51:00.240Z,2.82
2023-02-02T12:52:19.876Z,2.83
2023-02-02T12:53:40.901Z,2.84
2023-02-02T12:55:13.372Z,2.87
2023-02-02T12:56:28.731Z,2.82
2023-02-02T12:57:44.859Z,2.84
2023-02-02T12:58:58.754Z,2.85
2023-02-02T13:00:15.614Z,2.80
2023-02-02T13:01:31.437Z,2.84
2023-02-02T13:02:40.956Z,2.86
2023-02-02T13:03:59.612Z,2.88
2023-02-02T13:05:31.706Z,2.85
2023-02-02T13:07:07.977Z,2.83
2023-02-02T13:08:15.477Z,2.80
2023-02-02T13:09:25.813Z,2.73
2023-02-02T13:10:37.828Z,2.71
2023-02-02T13:11:50.080Z,2.70
2023-02-02T13:12:59.363Z,2.69
2023-02-02T13:14:11.642Z,2.70
2023-02-02T13:15:23.866Z,2.67
2023-02-02T13:16:29.881Z,2.68
2023-02-02T13:17:41.624Z,2.69
2023-02-02T13:18:48.715Z,2.74
2023-02-02T13:19:57.495Z,2.76
2023-02-02T13:21:06.010Z,2.72
2023-02-02T13:22:17.363Z,2.66
2023-02-02T13:23:26.667Z,2.67
2023-02-02T13:24:34.516Z,2.64
2023-02-02T13:25:47.620Z,2.61
2023-02-02T13:26:50.164Z,2.65
2023-02-02T13:27:56.446Z,2.64
2023-02-02T13:29:06.200Z,2.70
2023-02-02T13:30:18.019Z,2.67
2023-02-02T13:31:25.649Z,2.63
2023-02-02T13:32:33.133Z,2.66
2023-02-02T13:33:40.382Z,2.72
2023-02-02T13:34:47.439Z,2.69
2023-02-02T13:35:57.011Z,2.57
2023-02-02T13:37:06.647Z,2.60
2023-02-02T13:38:20.752Z,2.60
2023-02-02T13:39:39.662Z,2.57
2023-02-02T13:40:47.466Z,2.55
2023-02-02T13:41:52.708Z,2.62
2023-02-02T13:43:05.733Z,2.57
2023-02-02T13:44:18.711Z,2.63
2023-02-02T13:45:45.013Z,2.59
2023-02-02T13:46:57.246Z,2.62
2023-02-02T13:48:13.109Z,2.61
2023-02-02T13:49:21.390Z,2.59
2023-02-02T13:50:30.559Z,2.60
2023-02-02T13:51:53.845Z,2.64
2023-02-02T13:53:15.662Z,2.66
2023-02-02T13:54:50.697Z,2.58
2023-02-02T13:56:19.450Z,2.66
2023-02-02T13:57:42.510Z,2.65
2023-02-02T13:59:02.598Z,2.63
2023-02-02T14:00:18.450Z,2.66
2023-02-02T14:01:21.283Z,2.65
2023-02-02T14:02:33.442Z,2.63
2023-02-02T14:03:41.212Z,2.68
2023-02-02T14:04:45.921Z,2.70
2023-02-02T14:06:06.446Z,2.70
2023-02-02T14:07:11.174Z,2.75
2023-02-02T14:08:23.481Z,2.79
2023-02-02T14:09:29.447Z,2.84
2023-02-02T14:10:38.087Z,2.81
2023-02-02T14:11:58.580Z,2.79
2023-02-02T14:13:32.739Z,2.79
2023-02-02T14:14:40.119Z,2.79
2023-02-02T14:15:44.597Z,2.81
2023-02-02T14:16:56.195Z,2.83
2023-02-02T14:18:00.487Z,2.83
2023-02-02T14:19:03.360Z,2.81
2023-02-02T14:20:29.296Z,2.84
2023-02-02T14:22:02.101Z,2.79
2023-02-02T14:23:29.369Z,2.81
2023-02-02T14:24:49.317Z,2.85
2023-02-02T14:26:07.823Z,2.85
2023-02-02T14:27:42.462Z,2.86
2023-02-02T14:28:52.483Z,2.85
2023-02-02T14:30:01.142Z,2.89
2023-02-02T14:31:31.518Z,2.87
2023-02-02T14:32:46.040Z,2.88
2023-02-02T14:33:51.732Z,2.88
2023-02-02T14:34:58.289Z,2.91
2023-02-02T14:36:03.710Z,2.94
2023-02-02T14:37:31.028Z,2.87
2023-02-02T14:39:08.252Z,2.88
2023-02-02T14:40:36.757Z,2.89
2023-02-02T14:42:22.622Z,2.88
2023-02-02T14:43:48.019Z,2.91
2023-02-02T14:45:26.446Z,2.90
2023-02-02T14:46:40.579Z,2.96
2023-02-02T14:47:53.864Z,2.87
2023-02-02T14:49:26.469Z,2.90
2023-02-02T14:50:45.007Z,2.89
2023-02-02T14:52:03.112Z,2.86
2023-02-02T14:53:08.693Z,2.88
2023-02-02T14:54:24.409Z,2.86
2023-02-02T14:55:29.822Z,2.85
2023-02-02T14:56:49.928Z,2.88
2023-02-02T14:58:01.280Z,2.87
2023-02-02T14:59:07.671Z,2.86
2023-02-02T15:00:26.607Z,2.84
2023-02-02T15:01:33.735Z,2.87
2023-02-02T15:02:38.185Z,2.88
2023-02-02T15:03:56.240Z,2.91
2023-02-02T15:05:30.965Z,2.90
2023-02-02T15:06:37.650Z,2.85